WUK7BU EGGW-EPPO
Flight info
| Callsign | WUK7BU |
|---|---|
| Flight time | 1h 43m |
| Altitude | 37000 |
| Route | MATCH Q295 BRAIN M197 REDFA L620 TACHA DCT GARLU DCT VIBIS L619 PODUS DCT RADEL/N0409F310 L619 ALUKA DCT DENKO |
| Aircraft | A320/M-SDE3FGHIRWY/LB1 |
Departure
| Time | 2026-04-28 10:18 |
|---|---|
| Airport | London Luton Airport (EGGW) |
Arrival
| Time | 2026-04-28 12:01 |
|---|---|
| Airport | Poznań-Ławica Airport (EPPO) |
| Time | Latitude | Longitude | Altitude | Speed | Heading |
|---|---|---|---|---|---|
| 2026-04-28 09:54 | 51.87988 | -0.37864 | 524 ft | 0 kts | 128° |
| 2026-04-28 10:08 | 51.87992 | -0.37874 | 523 ft | 2 kts | 132° |
| 2026-04-28 10:08 | 51.88007 | -0.37894 | 523 ft | 3 kts | 158° |
| 2026-04-28 10:08 | 51.88025 | -0.37901 | 523 ft | 3 kts | 182° |
| 2026-04-28 10:09 | 51.88033 | -0.37900 | 523 ft | 0 kts | 187° |
| 2026-04-28 10:13 | 51.88032 | -0.37901 | 523 ft | 1 kts | 191° |
| 2026-04-28 10:13 | 51.88026 | -0.37919 | 523 ft | 8 kts | 233° |
| 2026-04-28 10:13 | 51.87966 | -0.37994 | 523 ft | 12 kts | 209° |
| 2026-04-28 10:13 | 51.87875 | -0.38008 | 523 ft | 15 kts | 167° |
| 2026-04-28 10:14 | 51.87795 | -0.37900 | 523 ft | 17 kts | 118° |
| 2026-04-28 10:14 | 51.87742 | -0.37719 | 523 ft | 19 kts | 115° |
| 2026-04-28 10:14 | 51.87679 | -0.37525 | 521 ft | 14 kts | 129° |
| 2026-04-28 10:14 | 51.87635 | -0.37464 | 523 ft | 8 kts | 150° |
| 2026-04-28 10:15 | 51.87577 | -0.37452 | 522 ft | 10 kts | 189° |
| 2026-04-28 10:15 | 51.87508 | -0.37522 | 522 ft | 12 kts | 232° |
| 2026-04-28 10:15 | 51.87483 | -0.37661 | 523 ft | 14 kts | 256° |
| 2026-04-28 10:15 | 51.87453 | -0.37823 | 522 ft | 17 kts | 250° |
| 2026-04-28 10:16 | 51.87421 | -0.37995 | 524 ft | 14 kts | 242° |
| 2026-04-28 10:16 | 51.87358 | -0.38077 | 523 ft | 4 kts | 204° |
| 2026-04-28 10:16 | 51.87355 | -0.38080 | 523 ft | 0 kts | 204° |
| 2026-04-28 10:17 | 51.87341 | -0.38089 | 522 ft | 5 kts | 203° |
| 2026-04-28 10:17 | 51.87285 | -0.38118 | 522 ft | 14 kts | 187° |
| 2026-04-28 10:17 | 51.87258 | -0.38022 | 524 ft | 13 kts | 69° |
| 2026-04-28 10:18 | 51.87287 | -0.37843 | 525 ft | 31 kts | 78° |
| 2026-04-28 10:18 | 51.87416 | -0.37120 | 522 ft | 98 kts | 76° |
| 2026-04-28 10:18 | 51.87649 | -0.35811 | 579 ft | 139 kts | 78° |
| 2026-04-28 10:18 | 51.87886 | -0.34335 | 1255 ft | 133 kts | 73° |
| 2026-04-28 10:19 | 51.88115 | -0.32896 | 1871 ft | 134 kts | 72° |
| 2026-04-28 10:19 | 51.88398 | -0.31335 | 2112 ft | 157 kts | 70° |
| 2026-04-28 10:19 | 51.88735 | -0.29498 | 2419 ft | 183 kts | 73° |
| 2026-04-28 10:19 | 51.89086 | -0.27363 | 2728 ft | 210 kts | 74° |
| 2026-04-28 10:20 | 51.89446 | -0.24937 | 3246 ft | 231 kts | 78° |
| 2026-04-28 10:20 | 51.89316 | -0.22312 | 4107 ft | 244 kts | 109° |
| 2026-04-28 10:20 | 51.88242 | -0.20117 | 4783 ft | 259 kts | 140° |
| 2026-04-28 10:20 | 51.86668 | -0.18671 | 4968 ft | 261 kts | 150° |
| 2026-04-28 10:21 | 51.85003 | -0.17486 | 5001 ft | 261 kts | 153° |
| 2026-04-28 10:21 | 51.83316 | -0.16386 | 5005 ft | 261 kts | 153° |
| 2026-04-28 10:21 | 51.81632 | -0.15285 | 5107 ft | 261 kts | 153° |
| 2026-04-28 10:21 | 51.79951 | -0.14158 | 5115 ft | 263 kts | 152° |
| 2026-04-28 10:22 | 51.78265 | -0.12998 | 5115 ft | 264 kts | 151° |
| 2026-04-28 10:22 | 51.76699 | -0.11546 | 5108 ft | 257 kts | 133° |
| 2026-04-28 10:22 | 51.75681 | -0.09313 | 5108 ft | 248 kts | 109° |
| 2026-04-28 10:22 | 51.75340 | -0.06646 | 5102 ft | 242 kts | 86° |
| 2026-04-28 10:23 | 51.75534 | -0.03957 | 5088 ft | 242 kts | 81° |
| 2026-04-28 10:23 | 51.75764 | -0.01267 | 5088 ft | 242 kts | 81° |
| 2026-04-28 10:23 | 51.75985 | 0.01418 | 5013 ft | 240 kts | 81° |
| 2026-04-28 10:23 | 51.76203 | 0.04085 | 5012 ft | 239 kts | 81° |
| 2026-04-28 10:24 | 51.76423 | 0.06744 | 5011 ft | 239 kts | 81° |
| 2026-04-28 10:24 | 51.76645 | 0.09405 | 5006 ft | 239 kts | 81° |
| 2026-04-28 10:24 | 51.76869 | 0.12066 | 5019 ft | 239 kts | 81° |
| 2026-04-28 10:24 | 51.77089 | 0.14736 | 5005 ft | 239 kts | 81° |
| 2026-04-28 10:25 | 51.77304 | 0.17393 | 5004 ft | 239 kts | 81° |
| 2026-04-28 10:25 | 51.77520 | 0.20058 | 5012 ft | 240 kts | 81° |
| 2026-04-28 10:25 | 51.77739 | 0.22726 | 5006 ft | 240 kts | 81° |
| 2026-04-28 10:25 | 51.77959 | 0.25403 | 5015 ft | 240 kts | 81° |
| 2026-04-28 10:26 | 51.78180 | 0.28119 | 5552 ft | 245 kts | 81° |
| 2026-04-28 10:26 | 51.78397 | 0.30823 | 6543 ft | 248 kts | 81° |
| 2026-04-28 10:26 | 51.78624 | 0.33651 | 7398 ft | 253 kts | 81° |
| 2026-04-28 10:26 | 51.78853 | 0.36492 | 8307 ft | 257 kts | 81° |
| 2026-04-28 10:27 | 51.79081 | 0.39339 | 9156 ft | 261 kts | 81° |
| 2026-04-28 10:27 | 51.79315 | 0.42269 | 10016 ft | 265 kts | 81° |
| 2026-04-28 10:27 | 51.79554 | 0.45261 | 10678 ft | 276 kts | 81° |
| 2026-04-28 10:27 | 51.79810 | 0.48471 | 10921 ft | 300 kts | 81° |
| 2026-04-28 10:28 | 51.80084 | 0.51924 | 11238 ft | 318 kts | 81° |
| 2026-04-28 10:28 | 51.80365 | 0.55506 | 11904 ft | 323 kts | 81° |
| 2026-04-28 10:28 | 51.80648 | 0.59137 | 12623 ft | 327 kts | 82° |
| 2026-04-28 10:29 | 51.81303 | 0.66452 | 14131 ft | 330 kts | 75° |
| 2026-04-28 10:29 | 51.81861 | 0.70074 | 14797 ft | 333 kts | 75° |
| 2026-04-28 10:29 | 51.82423 | 0.73704 | 15480 ft | 334 kts | 75° |
| 2026-04-28 10:29 | 51.82986 | 0.77351 | 16174 ft | 335 kts | 75° |
| 2026-04-28 10:30 | 51.83547 | 0.80995 | 16970 ft | 331 kts | 75° |
| 2026-04-28 10:30 | 51.84131 | 0.84576 | 17848 ft | 327 kts | 73° |
| 2026-04-28 10:30 | 51.84765 | 0.88111 | 18591 ft | 327 kts | 72° |
| 2026-04-28 10:30 | 51.85418 | 0.91596 | 19199 ft | 329 kts | 72° |
| 2026-04-28 10:31 | 51.86088 | 0.95139 | 19813 ft | 330 kts | 72° |
| 2026-04-28 10:31 | 51.86754 | 0.98699 | 20396 ft | 334 kts | 73° |
| 2026-04-28 10:31 | 51.87423 | 1.02327 | 20881 ft | 339 kts | 73° |
| 2026-04-28 10:31 | 51.88095 | 1.06011 | 21421 ft | 341 kts | 73° |
| 2026-04-28 10:32 | 51.88765 | 1.09711 | 21981 ft | 343 kts | 73° |
| 2026-04-28 10:32 | 51.89433 | 1.13425 | 22537 ft | 345 kts | 72° |
| 2026-04-28 10:32 | 51.90105 | 1.17161 | 23101 ft | 346 kts | 72° |
| 2026-04-28 10:32 | 51.90780 | 1.20914 | 23652 ft | 348 kts | 72° |
| 2026-04-28 10:33 | 51.91454 | 1.24688 | 24144 ft | 350 kts | 72° |
| 2026-04-28 10:33 | 51.92129 | 1.28482 | 24572 ft | 352 kts | 72° |
| 2026-04-28 10:33 | 51.92812 | 1.32312 | 24977 ft | 355 kts | 72° |
| 2026-04-28 10:33 | 51.93501 | 1.36169 | 25377 ft | 358 kts | 72° |
| 2026-04-28 10:34 | 51.94195 | 1.40058 | 25765 ft | 361 kts | 72° |
| 2026-04-28 10:34 | 51.94891 | 1.43977 | 26159 ft | 364 kts | 73° |
| 2026-04-28 10:34 | 51.95590 | 1.47931 | 26549 ft | 368 kts | 73° |
| 2026-04-28 10:34 | 51.96298 | 1.51957 | 26809 ft | 374 kts | 73° |
| 2026-04-28 10:35 | 51.97013 | 1.56027 | 27144 ft | 377 kts | 73° |
| 2026-04-28 10:35 | 51.97733 | 1.60140 | 27532 ft | 380 kts | 73° |
| 2026-04-28 10:35 | 51.98456 | 1.64276 | 27913 ft | 383 kts | 73° |
| 2026-04-28 10:35 | 51.99184 | 1.68452 | 28300 ft | 386 kts | 74° |
| 2026-04-28 10:36 | 51.99888 | 1.72669 | 28687 ft | 388 kts | 75° |
| 2026-04-28 10:36 | 52.00563 | 1.76923 | 29064 ft | 391 kts | 75° |
| 2026-04-28 10:36 | 52.01226 | 1.81232 | 29441 ft | 394 kts | 75° |
| 2026-04-28 10:36 | 52.01885 | 1.85565 | 29826 ft | 397 kts | 75° |
| 2026-04-28 10:37 | 52.02548 | 1.89928 | 30202 ft | 399 kts | 75° |
| 2026-04-28 10:37 | 52.03217 | 1.94326 | 30523 ft | 402 kts | 75° |
| 2026-04-28 10:37 | 52.03890 | 1.98745 | 30827 ft | 404 kts | 76° |
| 2026-04-28 10:37 | 52.04571 | 2.03202 | 31070 ft | 409 kts | 76° |
| 2026-04-28 10:38 | 52.05253 | 2.07642 | 31331 ft | 412 kts | 76° |
| 2026-04-28 10:38 | 52.05947 | 2.12167 | 31640 ft | 414 kts | 76° |
| 2026-04-28 10:38 | 52.06643 | 2.16717 | 32027 ft | 414 kts | 76° |
| 2026-04-28 10:38 | 52.07333 | 2.21260 | 32415 ft | 415 kts | 76° |
| 2026-04-28 10:39 | 52.08022 | 2.25823 | 32788 ft | 416 kts | 76° |
| 2026-04-28 10:39 | 52.08712 | 2.30393 | 33160 ft | 417 kts | 76° |
| 2026-04-28 10:39 | 52.09405 | 2.34974 | 33545 ft | 417 kts | 76° |
| 2026-04-28 10:39 | 52.10094 | 2.39560 | 33938 ft | 418 kts | 76° |
| 2026-04-28 10:40 | 52.10780 | 2.44159 | 34322 ft | 418 kts | 76° |
| 2026-04-28 10:40 | 52.11465 | 2.48758 | 34689 ft | 418 kts | 76° |
| 2026-04-28 10:40 | 52.11951 | 2.51788 | 34868 ft | 419 kts | 75° |
| 2026-04-28 10:40 | 52.12767 | 2.56347 | 35136 ft | 420 kts | 73° |
| 2026-04-28 10:41 | 52.13648 | 2.60880 | 35487 ft | 420 kts | 72° |
| 2026-04-28 10:41 | 52.14557 | 2.65407 | 35738 ft | 421 kts | 72° |
| 2026-04-28 10:41 | 52.15464 | 2.69927 | 36092 ft | 420 kts | 72° |
| 2026-04-28 10:41 | 52.16361 | 2.74468 | 36340 ft | 422 kts | 72° |
| 2026-04-28 10:42 | 52.17240 | 2.79023 | 36729 ft | 420 kts | 72° |
| 2026-04-28 10:42 | 52.18101 | 2.83568 | 36974 ft | 421 kts | 72° |
| 2026-04-28 10:42 | 52.18953 | 2.88132 | 37229 ft | 420 kts | 72° |
| 2026-04-28 10:43 | 52.20649 | 2.97287 | 37298 ft | 422 kts | 73° |
| 2026-04-28 10:43 | 52.22350 | 3.06465 | 37298 ft | 424 kts | 73° |
| 2026-04-28 10:44 | 52.24041 | 3.15584 | 37295 ft | 423 kts | 73° |
| 2026-04-28 10:44 | 52.25683 | 3.24788 | 37292 ft | 423 kts | 78° |
| 2026-04-28 10:45 | 52.26694 | 3.34179 | 37289 ft | 423 kts | 79° |
| 2026-04-28 10:45 | 52.27693 | 3.43646 | 37293 ft | 423 kts | 79° |
| 2026-04-28 10:46 | 52.28695 | 3.53125 | 37289 ft | 423 kts | 79° |
| 2026-04-28 10:46 | 52.29684 | 3.62629 | 37289 ft | 424 kts | 79° |
| 2026-04-28 10:47 | 52.30663 | 3.72147 | 37286 ft | 425 kts | 79° |
| 2026-04-28 10:47 | 52.31638 | 3.81666 | 37289 ft | 425 kts | 79° |
| 2026-04-28 10:48 | 52.32608 | 3.91200 | 37299 ft | 425 kts | 79° |
| 2026-04-28 10:48 | 52.33573 | 4.00748 | 37299 ft | 426 kts | 80° |
| 2026-04-28 10:49 | 52.34535 | 4.10324 | 37293 ft | 427 kts | 80° |
| 2026-04-28 10:49 | 52.35482 | 4.19865 | 37293 ft | 428 kts | 80° |
| 2026-04-28 10:50 | 52.36424 | 4.29481 | 37294 ft | 428 kts | 80° |
| 2026-04-28 10:50 | 52.37359 | 4.39117 | 37289 ft | 429 kts | 80° |
| 2026-04-28 10:51 | 52.38292 | 4.48770 | 37291 ft | 429 kts | 80° |
| 2026-04-28 10:51 | 52.39213 | 4.58410 | 37295 ft | 429 kts | 80° |
| 2026-04-28 10:52 | 52.40129 | 4.68072 | 37299 ft | 429 kts | 81° |
| 2026-04-28 10:52 | 52.41041 | 4.77726 | 37307 ft | 429 kts | 80° |
| 2026-04-28 10:53 | 52.41943 | 4.87383 | 37310 ft | 429 kts | 81° |
| 2026-04-28 10:53 | 52.42831 | 4.97035 | 37307 ft | 429 kts | 80° |
| 2026-04-28 10:54 | 52.43715 | 5.06697 | 37298 ft | 428 kts | 79° |
| 2026-04-28 10:54 | 52.44582 | 5.16255 | 37306 ft | 427 kts | 80° |
| 2026-04-28 10:55 | 52.45443 | 5.25870 | 37317 ft | 426 kts | 81° |
| 2026-04-28 10:55 | 52.46300 | 5.35485 | 37316 ft | 426 kts | 81° |
| 2026-04-28 10:56 | 52.47147 | 5.45102 | 37316 ft | 426 kts | 80° |
| 2026-04-28 10:56 | 52.47984 | 5.54731 | 37315 ft | 426 kts | 80° |
| 2026-04-28 10:57 | 52.48820 | 5.64365 | 37291 ft | 427 kts | 80° |
| 2026-04-28 10:57 | 52.49649 | 5.74017 | 37293 ft | 427 kts | 81° |
| 2026-04-28 10:58 | 52.50462 | 5.83679 | 37293 ft | 428 kts | 81° |
| 2026-04-28 10:58 | 52.51272 | 5.93355 | 37297 ft | 428 kts | 81° |
| 2026-04-28 10:59 | 52.52073 | 6.02965 | 37308 ft | 428 kts | 80° |
| 2026-04-28 10:59 | 52.52878 | 6.12679 | 37295 ft | 429 kts | 81° |
| 2026-04-28 11:00 | 52.53672 | 6.22412 | 37293 ft | 430 kts | 80° |
| 2026-04-28 11:00 | 52.54456 | 6.32160 | 37308 ft | 431 kts | 81° |
| 2026-04-28 11:01 | 52.55229 | 6.41918 | 37305 ft | 431 kts | 81° |
| 2026-04-28 11:01 | 52.55997 | 6.51703 | 37323 ft | 431 kts | 81° |
| 2026-04-28 11:02 | 52.56759 | 6.61482 | 37322 ft | 432 kts | 80° |
| 2026-04-28 11:02 | 52.57510 | 6.71294 | 37309 ft | 432 kts | 80° |
| 2026-04-28 11:03 | 52.58251 | 6.81033 | 37322 ft | 432 kts | 81° |
| 2026-04-28 11:03 | 52.58993 | 6.90832 | 37333 ft | 432 kts | 81° |
| 2026-04-28 11:04 | 52.59726 | 7.00634 | 37338 ft | 432 kts | 81° |
| 2026-04-28 11:04 | 52.60446 | 7.10438 | 37338 ft | 433 kts | 81° |
| 2026-04-28 11:05 | 52.61163 | 7.20290 | 37347 ft | 434 kts | 82° |
| 2026-04-28 11:05 | 52.61873 | 7.30147 | 37344 ft | 434 kts | 81° |
| 2026-04-28 11:06 | 52.62571 | 7.39942 | 37338 ft | 434 kts | 81° |
| 2026-04-28 11:06 | 52.63261 | 7.49819 | 37346 ft | 434 kts | 80° |
| 2026-04-28 11:07 | 52.63951 | 7.59698 | 37332 ft | 435 kts | 81° |
| 2026-04-28 11:07 | 52.64629 | 7.69608 | 37329 ft | 436 kts | 82° |
| 2026-04-28 11:08 | 52.65294 | 7.79525 | 37332 ft | 436 kts | 82° |
| 2026-04-28 11:08 | 52.65958 | 7.89465 | 37346 ft | 436 kts | 82° |
| 2026-04-28 11:09 | 52.66622 | 7.99417 | 37350 ft | 437 kts | 82° |
| 2026-04-28 11:09 | 52.67271 | 8.09358 | 37333 ft | 437 kts | 82° |
| 2026-04-28 11:10 | 52.67913 | 8.19318 | 37327 ft | 438 kts | 81° |
| 2026-04-28 11:10 | 52.68545 | 8.29318 | 37324 ft | 438 kts | 82° |
| 2026-04-28 11:11 | 52.69166 | 8.39315 | 37325 ft | 438 kts | 81° |
| 2026-04-28 11:11 | 52.69780 | 8.49314 | 37332 ft | 438 kts | 82° |
| 2026-04-28 11:12 | 52.70385 | 8.59258 | 37350 ft | 439 kts | 82° |
| 2026-04-28 11:12 | 52.70987 | 8.69267 | 37340 ft | 439 kts | 82° |
| 2026-04-28 11:13 | 52.71585 | 8.79304 | 37339 ft | 440 kts | 82° |
| 2026-04-28 11:13 | 52.72168 | 8.89347 | 37336 ft | 440 kts | 82° |
| 2026-04-28 11:14 | 52.72738 | 8.99303 | 37345 ft | 440 kts | 82° |
| 2026-04-28 11:14 | 52.73307 | 9.09365 | 37362 ft | 441 kts | 82° |
| 2026-04-28 11:15 | 52.73870 | 9.19465 | 37341 ft | 442 kts | 82° |
| 2026-04-28 11:15 | 52.74424 | 9.29562 | 37338 ft | 443 kts | 82° |
| 2026-04-28 11:16 | 52.74975 | 9.39705 | 37338 ft | 443 kts | 82° |
| 2026-04-28 11:16 | 52.75517 | 9.49847 | 37349 ft | 444 kts | 82° |
| 2026-04-28 11:17 | 52.76043 | 9.60003 | 37353 ft | 444 kts | 83° |
| 2026-04-28 11:17 | 52.76561 | 9.70175 | 37363 ft | 444 kts | 83° |
| 2026-04-28 11:18 | 52.77073 | 9.80338 | 37365 ft | 444 kts | 83° |
| 2026-04-28 11:18 | 52.77573 | 9.90456 | 37366 ft | 444 kts | 83° |
| 2026-04-28 11:19 | 52.78065 | 10.00617 | 37367 ft | 444 kts | 83° |
| 2026-04-28 11:19 | 52.78559 | 10.10802 | 37386 ft | 444 kts | 83° |
| 2026-04-28 11:20 | 52.79037 | 10.20991 | 37373 ft | 445 kts | 83° |
| 2026-04-28 11:20 | 52.79507 | 10.31176 | 37361 ft | 446 kts | 83° |
| 2026-04-28 11:21 | 52.79974 | 10.41405 | 37373 ft | 446 kts | 83° |
| 2026-04-28 11:21 | 52.80426 | 10.51570 | 37374 ft | 446 kts | 83° |
| 2026-04-28 11:22 | 52.80870 | 10.61792 | 37374 ft | 446 kts | 83° |
| 2026-04-28 11:22 | 52.81308 | 10.72030 | 37379 ft | 447 kts | 83° |
| 2026-04-28 11:23 | 52.81735 | 10.82289 | 37375 ft | 447 kts | 83° |
| 2026-04-28 11:23 | 52.82156 | 10.92542 | 37371 ft | 447 kts | 83° |
| 2026-04-28 11:24 | 52.82567 | 11.02811 | 37367 ft | 447 kts | 83° |
| 2026-04-28 11:24 | 52.83084 | 11.13056 | 37371 ft | 445 kts | 77° |
| 2026-04-28 11:25 | 52.84312 | 11.22993 | 37388 ft | 445 kts | 75° |
| 2026-04-28 11:25 | 52.85555 | 11.33031 | 37379 ft | 445 kts | 75° |
| 2026-04-28 11:26 | 52.86789 | 11.43082 | 37373 ft | 446 kts | 75° |
| 2026-04-28 11:26 | 52.88020 | 11.53137 | 37372 ft | 446 kts | 75° |
| 2026-04-28 11:27 | 52.89245 | 11.63213 | 37378 ft | 446 kts | 75° |
| 2026-04-28 11:27 | 52.90457 | 11.73294 | 37392 ft | 447 kts | 76° |
| 2026-04-28 11:28 | 52.91655 | 11.83393 | 37374 ft | 447 kts | 76° |
| 2026-04-28 11:28 | 52.92845 | 11.93448 | 37371 ft | 448 kts | 76° |
| 2026-04-28 11:29 | 52.94033 | 12.03591 | 37375 ft | 449 kts | 76° |
| 2026-04-28 11:29 | 52.95214 | 12.13756 | 37378 ft | 449 kts | 76° |
| 2026-04-28 11:30 | 52.96384 | 12.23923 | 37371 ft | 449 kts | 76° |
| 2026-04-28 11:30 | 52.97355 | 12.39388 | 37378 ft | 455 kts | 90° |
| 2026-04-28 11:31 | 52.97075 | 12.48100 | 37374 ft | 455 kts | 90° |
| 2026-04-28 11:31 | 52.96685 | 12.60361 | 37367 ft | 456 kts | 90° |
| 2026-04-28 11:32 | 52.96403 | 12.69066 | 36915 ft | 452 kts | 90° |
| 2026-04-28 11:32 | 52.96228 | 12.74253 | 36416 ft | 450 kts | 90° |
| 2026-04-28 11:32 | 52.96048 | 12.79433 | 35843 ft | 451 kts | 90° |
| 2026-04-28 11:33 | 52.95865 | 12.84634 | 35244 ft | 452 kts | 90° |
| 2026-04-28 11:33 | 52.95683 | 12.89841 | 34672 ft | 452 kts | 90° |
| 2026-04-28 11:33 | 52.95501 | 12.95044 | 34055 ft | 452 kts | 90° |
| 2026-04-28 11:33 | 52.95317 | 13.00254 | 33367 ft | 452 kts | 90° |
| 2026-04-28 11:34 | 52.95130 | 13.05455 | 32672 ft | 452 kts | 90° |
| 2026-04-28 11:34 | 52.94942 | 13.10667 | 31958 ft | 453 kts | 90° |
| 2026-04-28 11:34 | 52.94751 | 13.15872 | 31494 ft | 451 kts | 91° |
| 2026-04-28 11:34 | 52.94553 | 13.21066 | 31313 ft | 452 kts | 91° |
| 2026-04-28 11:35 | 52.94151 | 13.31438 | 31367 ft | 456 kts | 91° |
| 2026-04-28 11:35 | 52.93739 | 13.41947 | 31365 ft | 457 kts | 91° |
| 2026-04-28 11:36 | 52.93325 | 13.52468 | 31367 ft | 458 kts | 91° |
| 2026-04-28 11:36 | 52.92894 | 13.62987 | 31367 ft | 457 kts | 91° |
| 2026-04-28 11:37 | 52.92450 | 13.73520 | 31367 ft | 457 kts | 91° |
| 2026-04-28 11:37 | 52.92008 | 13.84025 | 31376 ft | 458 kts | 91° |
| 2026-04-28 11:38 | 52.91557 | 13.94567 | 31357 ft | 459 kts | 91° |
| 2026-04-28 11:38 | 52.91095 | 14.04952 | 31369 ft | 440 kts | 91° |
| 2026-04-28 11:39 | 52.90635 | 14.14968 | 31369 ft | 434 kts | 91° |
| 2026-04-28 11:39 | 52.90177 | 14.24864 | 31013 ft | 426 kts | 91° |
| 2026-04-28 11:40 | 52.89951 | 14.29730 | 30569 ft | 423 kts | 91° |
| 2026-04-28 11:40 | 52.89725 | 14.34579 | 30068 ft | 420 kts | 91° |
| 2026-04-28 11:40 | 52.89499 | 14.39366 | 29612 ft | 415 kts | 91° |
| 2026-04-28 11:40 | 52.89271 | 14.44117 | 29173 ft | 412 kts | 91° |
| 2026-04-28 11:41 | 52.89042 | 14.48826 | 28726 ft | 409 kts | 91° |
| 2026-04-28 11:41 | 52.88814 | 14.53442 | 28270 ft | 405 kts | 91° |
| 2026-04-28 11:41 | 52.88581 | 14.58134 | 27746 ft | 403 kts | 91° |
| 2026-04-28 11:41 | 52.88352 | 14.62676 | 27340 ft | 400 kts | 91° |
| 2026-04-28 11:42 | 52.88120 | 14.67249 | 26925 ft | 397 kts | 91° |
| 2026-04-28 11:42 | 52.87891 | 14.71791 | 26504 ft | 394 kts | 91° |
| 2026-04-28 11:42 | 52.87664 | 14.76295 | 26093 ft | 392 kts | 91° |
| 2026-04-28 11:42 | 52.87435 | 14.80777 | 25682 ft | 389 kts | 91° |
| 2026-04-28 11:43 | 52.87205 | 14.85231 | 25274 ft | 387 kts | 91° |
| 2026-04-28 11:43 | 52.86974 | 14.89649 | 24868 ft | 385 kts | 91° |
| 2026-04-28 11:43 | 52.86740 | 14.94052 | 24464 ft | 382 kts | 91° |
| 2026-04-28 11:43 | 52.86507 | 14.98423 | 24061 ft | 380 kts | 91° |
| 2026-04-28 11:44 | 52.86273 | 15.02763 | 23607 ft | 378 kts | 91° |
| 2026-04-28 11:44 | 52.86042 | 15.07074 | 23150 ft | 375 kts | 91° |
| 2026-04-28 11:44 | 52.85812 | 15.11361 | 22711 ft | 372 kts | 91° |
| 2026-04-28 11:44 | 52.85581 | 15.15607 | 22283 ft | 369 kts | 91° |
| 2026-04-28 11:45 | 52.85349 | 15.19816 | 21862 ft | 366 kts | 91° |
| 2026-04-28 11:45 | 52.85116 | 15.23997 | 21446 ft | 363 kts | 91° |
| 2026-04-28 11:45 | 52.84884 | 15.28144 | 21033 ft | 361 kts | 91° |
| 2026-04-28 11:45 | 52.84655 | 15.32260 | 20625 ft | 359 kts | 91° |
| 2026-04-28 11:46 | 52.84427 | 15.36354 | 20202 ft | 357 kts | 91° |
| 2026-04-28 11:46 | 52.84201 | 15.40378 | 19811 ft | 355 kts | 91° |
| 2026-04-28 11:46 | 52.83973 | 15.44429 | 19424 ft | 352 kts | 91° |
| 2026-04-28 11:46 | 52.83745 | 15.48452 | 19044 ft | 350 kts | 91° |
| 2026-04-28 11:47 | 52.83516 | 15.52443 | 18693 ft | 347 kts | 91° |
| 2026-04-28 11:47 | 52.83285 | 15.56372 | 18435 ft | 340 kts | 91° |
| 2026-04-28 11:47 | 52.83052 | 15.60257 | 18078 ft | 337 kts | 92° |
| 2026-04-28 11:47 | 52.82822 | 15.64104 | 17698 ft | 335 kts | 91° |
| 2026-04-28 11:48 | 52.82597 | 15.67924 | 17328 ft | 332 kts | 91° |
| 2026-04-28 11:48 | 52.82374 | 15.71710 | 16972 ft | 330 kts | 91° |
| 2026-04-28 11:48 | 52.82149 | 15.75478 | 16625 ft | 328 kts | 91° |
| 2026-04-28 11:48 | 52.81924 | 15.79217 | 16279 ft | 326 kts | 91° |
| 2026-04-28 11:49 | 52.81647 | 15.82933 | 15938 ft | 327 kts | 97° |
| 2026-04-28 11:49 | 52.81016 | 15.86553 | 15587 ft | 328 kts | 105° |
| 2026-04-28 11:49 | 52.80283 | 15.90110 | 15242 ft | 327 kts | 105° |
| 2026-04-28 11:49 | 52.79552 | 15.93654 | 14912 ft | 325 kts | 105° |
| 2026-04-28 11:50 | 52.78826 | 15.97176 | 14581 ft | 323 kts | 105° |
| 2026-04-28 11:50 | 52.78116 | 16.00630 | 14274 ft | 321 kts | 105° |
| 2026-04-28 11:50 | 52.77397 | 16.04121 | 13929 ft | 319 kts | 105° |
| 2026-04-28 11:50 | 52.76686 | 16.07575 | 13578 ft | 317 kts | 105° |
| 2026-04-28 11:51 | 52.75798 | 16.10904 | 13219 ft | 319 kts | 121° |
| 2026-04-28 11:51 | 52.74441 | 16.13798 | 12889 ft | 319 kts | 127° |
| 2026-04-28 11:51 | 52.73047 | 16.16630 | 12545 ft | 317 kts | 127° |
| 2026-04-28 11:51 | 52.71660 | 16.19432 | 12113 ft | 313 kts | 127° |
| 2026-04-28 11:52 | 52.70287 | 16.22200 | 11533 ft | 311 kts | 127° |
| 2026-04-28 11:52 | 52.68920 | 16.24944 | 11029 ft | 308 kts | 127° |
| 2026-04-28 11:52 | 52.67565 | 16.27662 | 10547 ft | 306 kts | 127° |
| 2026-04-28 11:52 | 52.66217 | 16.30368 | 10028 ft | 303 kts | 127° |
| 2026-04-28 11:53 | 52.64905 | 16.33003 | 9549 ft | 300 kts | 127° |
| 2026-04-28 11:53 | 52.63576 | 16.35675 | 9114 ft | 294 kts | 127° |
| 2026-04-28 11:53 | 52.62322 | 16.38186 | 8930 ft | 281 kts | 127° |
| 2026-04-28 11:53 | 52.61112 | 16.40603 | 8794 ft | 266 kts | 127° |
| 2026-04-28 11:54 | 52.59854 | 16.42722 | 8646 ft | 254 kts | 143° |
| 2026-04-28 11:54 | 52.58273 | 16.43894 | 8360 ft | 248 kts | 168° |
| 2026-04-28 11:54 | 52.56569 | 16.43934 | 8022 ft | 245 kts | 193° |
| 2026-04-28 11:54 | 52.54950 | 16.43144 | 7667 ft | 242 kts | 198° |
| 2026-04-28 11:55 | 52.53344 | 16.42317 | 7310 ft | 241 kts | 198° |
| 2026-04-28 11:55 | 52.51711 | 16.41918 | 6938 ft | 239 kts | 171° |
| 2026-04-28 11:55 | 52.50219 | 16.42925 | 6572 ft | 231 kts | 137° |
| 2026-04-28 11:55 | 52.49310 | 16.45007 | 6159 ft | 222 kts | 107° |
| 2026-04-28 11:56 | 52.48849 | 16.47408 | 5726 ft | 221 kts | 104° |
| 2026-04-28 11:56 | 52.48403 | 16.49749 | 5557 ft | 206 kts | 104° |
| 2026-04-28 11:56 | 52.48002 | 16.51828 | 5386 ft | 184 kts | 104° |
| 2026-04-28 11:56 | 52.47627 | 16.53791 | 4836 ft | 178 kts | 104° |
| 2026-04-28 11:57 | 52.47258 | 16.55728 | 4144 ft | 178 kts | 104° |
| 2026-04-28 11:57 | 52.46893 | 16.57643 | 3446 ft | 175 kts | 106° |
| 2026-04-28 11:57 | 52.46528 | 16.59555 | 2695 ft | 176 kts | 107° |
| 2026-04-28 11:57 | 52.46166 | 16.61454 | 2238 ft | 168 kts | 106° |
| 2026-04-28 11:58 | 52.45838 | 16.63163 | 2084 ft | 149 kts | 105° |
| 2026-04-28 11:58 | 52.45542 | 16.64705 | 2017 ft | 137 kts | 105° |
| 2026-04-28 11:58 | 52.45264 | 16.66165 | 2015 ft | 134 kts | 106° |
| 2026-04-28 11:58 | 52.44988 | 16.67600 | 2013 ft | 134 kts | 106° |
| 2026-04-28 11:59 | 52.44710 | 16.69048 | 1787 ft | 132 kts | 106° |
| 2026-04-28 11:59 | 52.44433 | 16.70486 | 1607 ft | 130 kts | 107° |
| 2026-04-28 11:59 | 52.44158 | 16.71914 | 1423 ft | 132 kts | 105° |
| 2026-04-28 11:59 | 52.43886 | 16.73336 | 1248 ft | 129 kts | 106° |
| 2026-04-28 12:00 | 52.43624 | 16.74723 | 1052 ft | 128 kts | 104° |
| 2026-04-28 12:00 | 52.43353 | 16.76147 | 828 ft | 130 kts | 105° |
| 2026-04-28 12:00 | 52.43070 | 16.77531 | 680 ft | 131 kts | 105° |
| 2026-04-28 12:00 | 52.42804 | 16.78950 | 559 ft | 130 kts | 104° |
| 2026-04-28 12:01 | 52.42536 | 16.80363 | 418 ft | 129 kts | 105° |
| 2026-04-28 12:01 | 52.42266 | 16.81735 | 324 ft | 117 kts | 105° |
| 2026-04-28 12:01 | 52.42064 | 16.82852 | 304 ft | 80 kts | 109° |
| 2026-04-28 12:01 | 52.41972 | 16.83324 | 301 ft | 29 kts | 101° |
| 2026-04-28 12:02 | 52.41860 | 16.83625 | 303 ft | 34 kts | 134° |
| 2026-04-28 12:02 | 52.41738 | 16.83781 | 299 ft | 13 kts | 177° |
| 2026-04-28 12:02 | 52.41727 | 16.83703 | 302 ft | 11 kts | 305° |
| 2026-04-28 12:02 | 52.41759 | 16.83548 | 302 ft | 18 kts | 286° |
| 2026-04-28 12:03 | 52.41804 | 16.83316 | 302 ft | 25 kts | 284° |
| 2026-04-28 12:03 | 52.41857 | 16.83057 | 305 ft | 15 kts | 271° |
| 2026-04-28 12:03 | 52.41857 | 16.82930 | 303 ft | 9 kts | 224° |
| 2026-04-28 12:03 | 52.41774 | 16.82871 | 304 ft | 17 kts | 197° |
| 2026-04-28 12:04 | 52.41696 | 16.82848 | 304 ft | 7 kts | 164° |
| 2026-04-28 12:04 | 52.41659 | 16.82910 | 303 ft | 10 kts | 102° |
| 2026-04-28 12:04 | 52.41621 | 16.82996 | 303 ft | 8 kts | 163° |
| 2026-04-28 12:04 | 52.41578 | 16.82986 | 304 ft | 8 kts | 189° |
| 2026-04-28 12:05 | 52.41572 | 16.82985 | 304 ft | 0 kts | 189° |